Data for 05/15/2016

Time Sea-Level Adjusted Pressure Absolute Pressure Temperature Relative Humidity Dew Point   
(mb) (inHg) (mb) (inHg) (C) (F) (%) (C) (F)
00:05 1018 30.06 848 25.04 6.2 43.2 66 0.3 32.5
00:10 1018 30.06 848 25.04 6.2 43.1 65 0.1 32.3
00:15 1018 30.06 848 25.04 6.2 43.1 65 0.2 32.3
00:20 1018 30.06 848 25.04 6.2 43.1 65 0.2 32.3
00:25 1018 30.06 848 25.04 6.2 43.1 65 0.1 32.1
00:30 1018 30.06 847 25.01 6.2 43.2 65 0.1 32.2
00:35 1018 30.06 847 25.01 6.2 43.2 65 0.1 32.2
00:40 1018 30.06 847 25.01 6.2 43.1 65 0 32.1
00:45 1018 30.06 847 25.01 6.1 43 66 0.2 32.3
00:50 1018 30.06 847 25.01 6 42.8 67 0.3 32.5
00:55 1018 30.06 847 25.01 6 42.7 67 0.3 32.5
01:00 1018 30.06 847 25.01 5.9 42.6 67 0.2 32.4
01:05 1018 30.06 847 25.01 5.9 42.6 67 0.2 32.4
01:10 1018 30.06 847 25.01 5.9 42.6 66 0.1 32.2
01:15 1018 30.06 847 25.01 5.9 42.6 66 0.1 32.2
01:20 1018 30.06 847 25.01 5.9 42.6 66 0.1 32.2
01:25 1018 30.06 847 25.01 5.8 42.5 67 0.2 32.3
01:30 1018 30.06 847 25.01 5.7 42.3 67 0 32
01:35 1018 30.06 847 25.01 5.6 42.1 66 -0.2 31.6
01:40 1018 30.06 847 25.01 5.5 41.9 66 -0.3 31.5
01:45 1018 30.06 847 25.01 5.3 41.5 67 -0.4 31.3
01:50 1018 30.06 847 25.01 5.1 41.2 67 -0.6 31
01:55 1018 30.06 847 25.01 5 41 67 -0.6 30.9
02:00 1017 30.03 847 25.01 4.9 40.8 67 -0.7 30.7
02:05 1017 30.03 847 25.01 4.8 40.7 67 -0.8 30.5
02:10 1017 30.03 847 25.01 4.8 40.7 67 -0.8 30.6
02:15 1017 30.03 846 24.98 4.7 40.5 67 -0.8 30.6
02:20 1017 30.03 846 24.98 4.7 40.5 68 -0.7 30.7
02:25 1017 30.03 846 24.98 4.7 40.5 67 -0.8 30.6
02:30 1016 30 846 24.98 4.7 40.5 68 -0.7 30.7
02:35 1016 30 845 24.95 4.7 40.5 67 -0.8 30.6
02:40 1016 30 845 24.95 4.7 40.4 68 -0.8 30.5
02:45 1016 30 845 24.95 4.6 40.3 67 -0.9 30.4
02:50 1016 30 845 24.95 4.6 40.3 67 -0.9 30.3
02:55 1016 30 845 24.95 4.6 40.3 67 -0.9 30.3
03:00 1016 30 845 24.95 4.6 40.2 67 -1 30.2
03:05 1016 30 846 24.98 4.5 40.1 67 -1.1 30
03:10 1017 30.03 846 24.98 4.5 40.1 68 -1 30.2
03:15 1017 30.03 846 24.98 4.5 40 68 -1 30.2
03:20 1017 30.03 846 24.98 4.4 40 68 -1 30.2
03:25 1017 30.03 846 24.98 4.4 40 68 -1 30.1
03:30 1017 30.03 846 24.98 4.4 39.9 67 -1.1 30
03:35 1017 30.03 846 24.98 4.3 39.7 68 -1.1 29.9
03:40 1016 30 846 24.98 4.1 39.4 68 -1.3 29.7
03:45 1016 30 845 24.95 4 39.3 68 -1.4 29.4
03:50 1016 30 845 24.95 4 39.2 68 -1.4 29.4
03:55 1016 30 845 24.95 4 39.1 68 -1.4 29.4
04:00 1017 30.03 846 24.98 3.9 39 68 -1.5 29.4
04:05 1017 30.03 846 24.98 3.9 39 68 -1.4 29.5
04:10 1017 30.03 846 24.98 3.8 38.8 69 -1.4 29.5
04:15 1017 30.03 846 24.98 3.8 38.8 68 -1.5 29.3
04:20 1017 30.03 846 24.98 3.8 38.9 68 -1.4 29.4
04:25 1017 30.03 846 24.98 3.8 38.9 68 -1.4 29.4
04:30 1017 30.03 846 24.98 3.8 38.9 68 -1.5 29.3
04:35 1017 30.03 846 24.98 3.8 38.9 69 -1.4 29.5
04:40 1017 30.03 846 24.98 3.8 38.9 69 -1.4 29.5
04:45 1017 30.03 846 24.98 3.8 38.9 69 -1.3 29.6
04:50 1017 30.03 846 24.98 3.8 38.9 69 -1.4 29.5
04:55 1017 30.03 846 24.98 3.8 38.9 69 -1.4 29.6
05:00 1017 30.03 846 24.98 3.8 38.9 69 -1.4 29.5
05:05 1017 30.03 846 24.98 3.9 39 69 -1.3 29.6
05:10 1017 30.03 846 24.98 3.9 39 69 -1.2 29.8
05:15 1017 30.03 846 24.98 3.9 39 69 -1.3 29.7
05:20 1017 30.03 846 24.98 3.9 39 69 -1.2 29.8
05:25 1017 30.03 846 24.98 3.9 39 69 -1.2 29.8
05:30 1017 30.03 846 24.98 3.9 39.1 69 -1.3 29.7
05:35 1017 30.03 846 24.98 4 39.1 69 -1.2 29.8
05:40 1017 30.03 846 24.98 4 39.1 69 -1.2 29.8
05:45 1017 30.03 846 24.98 3.9 39 70 -1.1 29.9
05:50 1017 30.03 846 24.98 3.8 38.8 74 -0.5 31.2
05:55 1017 30.03 846 24.98 3.4 38.1 78 -0.1 31.9
06:00 1016 30 846 24.98 3.2 37.8 79 -0.1 31.7
06:05 1016 30 846 24.98 3.2 37.7 80 -0 32
06:10 1016 30 846 24.98 3.2 37.7 79 -0.1 31.9
06:15 1016 30 845 24.95 3.2 37.8 77 -0.4 31.3
06:20 1016 30 845 24.95 3.4 38.1 76 -0.4 31.3
06:25 1016 30 845 24.95 3.4 38.2 76 -0.3 31.5
06:30 1016 30 845 24.95 3.4 38.1 77 -0.2 31.6
06:35 1016 30 845 24.95 3.3 37.9 78 -0.2 31.6
06:40 1016 30 845 24.95 3.2 37.8 78 -0.3 31.5
06:45 1016 30 845 24.95 3.1 37.6 79 -0.2 31.7
06:50 1016 30 845 24.95 3 37.4 81 0.1 32.1
06:55 1016 30 845 24.95 3 37.4 79 -0.2 31.6
07:00 1016 30 845 24.95 3 37.4 79 -0.2 31.6
07:05 1016 30 845 24.95 3.1 37.6 79 -0.3 31.5
07:10 1016 30 845 24.95 3.2 37.8 78 -0.2 31.6
07:15 1016 30 845 24.95 3.2 37.8 79 0 32
07:20 1015 29.97 845 24.95 3.2 37.8 81 0.2 32.4
07:25 1015 29.97 845 24.95 3.3 38 82 0.5 32.8
07:30 1015 29.97 844 24.92 3.5 38.3 80 0.4 32.8
07:35 1015 29.97 844 24.92 3.7 38.7 79 0.4 32.8
07:40 1015 29.97 844 24.92 3.9 39 79 0.6 33
07:45 1015 29.97 844 24.92 4 39.3 78 0.5 32.8
07:50 1015 29.97 844 24.92 4 39.2 78 0.6 33
07:55 1015 29.97 844 24.92 4 39.3 77 0.4 32.8
08:00 1015 29.97 844 24.92 4 39.2 77 0.3 32.5
08:05 1015 29.97 844 24.92 4.1 39.4 76 0.3 32.6
08:10 1015 29.97 844 24.92 4.2 39.5 76 0.3 32.6
08:15 1015 29.97 844 24.92 4.3 39.8 75 0.4 32.7
08:20 1015 29.97 844 24.92 4.4 39.9 75 0.4 32.7
08:25 1015 29.97 844 24.92 4.4 40 75 0.4 32.7
08:30 1015 29.97 844 24.92 4.4 39.9 74 0.2 32.3
08:35 1015 29.97 844 24.92 4.4 39.9 75 0.3 32.5
08:40 1015 29.97 844 24.92 4.6 40.2 74 0.3 32.6
08:45 1015 29.97 844 24.92 4.6 40.2 73 0.1 32.1
08:50 1015 29.97 845 24.95 4.6 40.2 73 0.2 32.3
08:55 1015 29.97 845 24.95 4.7 40.5 72 0.2 32.3
09:00 1015 29.97 845 24.95 4.7 40.5 72 0.1 32.3
09:05 1015 29.97 845 24.95 4.8 40.6 72 0.1 32.2
09:10 1015 29.97 845 24.95 4.7 40.5 72 0.1 32.2
09:15 1015 29.97 844 24.92 4.7 40.5 72 0.1 32.2
09:20 1015 29.97 844 24.92 4.7 40.4 74 0.4 32.7
09:25 1015 29.97 844 24.92 4.6 40.4 74 0.5 32.8
09:30 1015 29.97 845 24.95 4.5 40.2 76 0.7 33.3
09:35 1015 29.97 845 24.95 4.4 39.9 76 0.6 33
09:40 1015 29.97 845 24.95 4.3 39.7 78 0.8 33.4
09:45 1015 29.97 844 24.92 4.2 39.6 78 0.8 33.4
09:50 1015 29.97 845 24.95 4.1 39.3 79 0.8 33.5
09:55 1015 29.97 845 24.95 4 39.2 81 1 33.9
10:00 1015 29.97 845 24.95 4 39.1 81 1.1 33.9
10:05 1015 29.97 845 24.95 3.9 39 82 1.1 34
10:10 1015 29.97 845 24.95 3.8 38.9 82 1.1 34
10:15 1015 29.97 845 24.95 3.8 38.8 84 1.3 34.3
10:20 1015 29.97 844 24.92 3.8 38.8 83 1.1 34.1
10:25 1015 29.97 844 24.92 3.8 38.9 85 1.5 34.7
10:30 1015 29.97 844 24.92 3.8 38.8 84 1.4 34.5
10:35 1015 29.97 844 24.92 3.7 38.7 84 1.3 34.4
10:40 1015 29.97 844 24.92 3.6 38.5 84 1.2 34.1
10:45 1015 29.97 844 24.92 3.6 38.5 85 1.3 34.3
10:50 1015 29.97 844 24.92 3.6 38.4 85 1.3 34.3
10:55 1015 29.97 844 24.92 3.6 38.4 84 1.2 34.1
11:00 1015 29.97 844 24.92 3.6 38.6 85 1.4 34.5
11:05 1015 29.97 844 24.92 3.7 38.7 85 1.4 34.5
11:10 1015 29.97 844 24.92 3.8 38.8 84 1.4 34.5
11:15 1015 29.97 844 24.92 3.8 38.9 85 1.5 34.7
11:20 1015 29.97 844 24.92 3.8 38.9 85 1.5 34.6
11:25 1015 29.97 845 24.95 3.7 38.7 85 1.4 34.6
11:30 1015 29.97 845 24.95 3.7 38.7 85 1.4 34.5
11:35 1015 29.97 845 24.95 3.8 38.8 84 1.3 34.3
11:40 1015 29.97 845 24.95 3.8 38.9 83 1.3 34.3
11:45 1015 29.97 845 24.95 4 39.1 84 1.5 34.6
11:50 1015 29.97 844 24.92 4.1 39.4 82 1.4 34.5
11:55 1015 29.97 844 24.92 4.1 39.5 82 1.3 34.4
12:00 1015 29.97 844 24.92 4.3 39.7 84 1.7 35.1
12:05 1015 29.97 844 24.92 4.4 39.9 82 1.6 34.9
12:10 1015 29.97 844 24.92 4.5 40 83 1.8 35.2
12:15 1015 29.97 844 24.92 4.5 40.1 81 1.5 34.7
12:20 1015 29.97 844 24.92 4.4 40 81 1.5 34.8
12:25 1015 29.97 844 24.92 4.4 39.9 81 1.4 34.5
12:30 1015 29.97 844 24.92 4.4 39.9 81 1.4 34.5
12:35 1015 29.97 844 24.92 4.4 40 81 1.5 34.7
12:40 1015 29.97 844 24.92 4.5 40 80 1.4 34.4
12:45 1015 29.97 845 24.95 4.3 39.7 80 1.1 34
12:50 1015 29.97 844 24.92 4.2 39.6 79 1 33.8
12:55 1015 29.97 845 24.95 4.2 39.6 80 1.1 34
13:00 1015 29.97 845 24.95 4.3 39.8 78 0.9 33.6
13:05 1015 29.97 845 24.95 4.4 39.9 78 0.8 33.5
13:10 1015 29.97 845 24.95 4.4 39.9 78 0.9 33.6
13:15 1016 30 845 24.95 4.4 40 78 1 33.7
13:20 1016 30 845 24.95 4.4 40 79 1 33.9
13:25 1016 30 845 24.95 4.4 39.9 79 1.1 34
13:30 1016 30 845 24.95 4.4 39.9 79 1.1 34.1
13:35 1016 30 845 24.95 4.3 39.8 79 1.1 34
13:40 1016 30 845 24.95 4.3 39.8 79 1.1 33.9
13:45 1016 30 845 24.95 4.3 39.7 82 1.4 34.6
13:50 1016 30 845 24.95 4.1 39.4 83 1.5 34.7
13:55 1016 30 845 24.95 3.9 39 83 1.3 34.4
14:00 1016 30 845 24.95 3.8 38.9 84 1.3 34.4
14:05 1016 30 845 24.95 3.8 38.9 84 1.3 34.4
14:10 1016 30 845 24.95 3.8 38.9 84 1.4 34.6
14:15 1016 30 845 24.95 3.8 38.9 83 1.3 34.3
14:20 1016 30 845 24.95 3.8 38.8 85 1.4 34.6
14:25 1016 30 845 24.95 3.8 38.8 84 1.3 34.4
14:30 1016 30 845 24.95 3.7 38.6 85 1.3 34.4
14:35 1016 30 845 24.95 3.7 38.7 85 1.5 34.6
14:40 1016 30 845 24.95 3.8 38.8 84 1.3 34.3
14:45 1016 30 845 24.95 3.9 38.9 84 1.4 34.6
14:50 1016 30 845 24.95 3.9 38.9 85 1.5 34.7
14:55 1016 30 845 24.95 3.9 38.9 84 1.3 34.4
15:00 1016 30 845 24.95 3.8 38.9 84 1.4 34.6
15:05 1016 30 845 24.95 3.9 38.9 84 1.4 34.5
15:10 1016 30 845 24.95 3.9 39.1 83 1.3 34.3
15:15 1016 30 845 24.95 4 39.2 83 1.4 34.5
15:20 1016 30 845 24.95 4.1 39.4 83 1.4 34.6
15:25 1016 30 845 24.95 4.2 39.5 82 1.4 34.5
15:30 1016 30 845 24.95 4.2 39.6 83 1.6 34.8
15:35 1016 30 845 24.95 4.3 39.7 83 1.6 34.9
15:40 1016 30 845 24.95 4.4 39.9 82 1.6 34.9
15:45 1016 30 845 24.95 4.5 40 83 1.8 35.3
15:50 1016 30 845 24.95 4.6 40.2 84 2 35.7
15:55 1016 30 845 24.95 4.7 40.5 84 2.3 36.1
16:00 1016 30 845 24.95 4.9 40.8 83 2.2 36
16:05 1016 30 845 24.95 5 40.9 82 2.1 35.8
16:10 1016 30 845 24.95 5 41 83 2.4 36.3
16:15 1016 30 845 24.95 5.1 41.1 84 2.5 36.5
16:20 1016 30 845 24.95 5.2 41.3 82 2.3 36.2
16:25 1016 30 845 24.95 5.2 41.4 84 2.8 37
16:30 1016 30 845 24.95 5.5 41.9 82 2.6 36.6
16:35 1016 30 845 24.95 5.6 42.1 78 2 35.6
16:40 1016 30 845 24.95 5.6 42.2 79 2.3 36.2
16:45 1016 30 845 24.95 5.7 42.2 79 2.3 36.1
16:50 1016 30 845 24.95 5.8 42.4 78 2.2 36
16:55 1016 30 845 24.95 5.9 42.6 77 2.1 35.8
17:00 1016 30 845 24.95 5.9 42.6 77 2.1 35.8
17:05 1016 30 845 24.95 5.8 42.5 79 2.5 36.5
17:10 1016 30 845 24.95 5.9 42.6 79 2.4 36.4
17:15 1016 30 845 24.95 5.9 42.5 77 2.2 36
17:20 1016 30 845 24.95 5.9 42.7 78 2.3 36.2
17:25 1016 30 845 24.95 6 42.9 77 2.4 36.3
17:30 1016 30 845 24.95 6.1 42.9 76 2.1 35.8
17:35 1016 30 845 24.95 6 42.8 77 2.3 36.1
17:40 1016 30 845 24.95 5.9 42.7 77 2.2 36
17:45 1016 30 845 24.95 5.8 42.5 81 2.8 37.1
17:50 1016 30 845 24.95 5.7 42.2 78 2.2 36
17:55 1016 30 845 24.95 5.7 42.3 81 2.8 37
18:00 1016 30 845 24.95 5.7 42.3 86 3.5 38.3
18:05 1016 30 845 24.95 5.6 42.1 87 3.6 38.5
18:10 1016 30 845 24.95 5.5 41.9 86 3.3 38
18:15 1016 30 845 24.95 5.3 41.5 86 3.2 37.8
18:20 1016 30 845 24.95 5.2 41.4 88 3.4 38.1
18:25 1016 30 845 24.95 5.2 41.4 85 2.9 37.3
18:30 1016 30 845 24.95 5.3 41.5 83 2.5 36.6
18:35 1016 30 845 24.95 5.4 41.8 84 2.9 37.2
18:40 1016 30 845 24.95 5.5 41.8 85 3.2 37.8
18:45 1016 30 845 24.95 5.4 41.7 85 3 37.5
18:50 1016 30 845 24.95 5.3 41.6 85 3 37.4
18:55 1016 30 845 24.95 5.2 41.3 85 2.9 37.3
19:00 1016 30 845 24.95 5 41 87 3.1 37.5
19:05 1016 30 846 24.98 4.9 40.8 88 3 37.5
19:10 1016 30 846 24.98 4.8 40.7 88 3 37.4
19:15 1016 30 846 24.98 4.8 40.6 88 3 37.4
19:20 1016 30 846 24.98 4.8 40.7 87 2.9 37.3
19:25 1017 30.03 846 24.98 4.7 40.5 87 2.7 36.9
19:30 1017 30.03 846 24.98 4.7 40.5 88 2.8 37.1
19:35 1017 30.03 846 24.98 4.7 40.5 88 2.8 37.1
19:40 1017 30.03 846 24.98 4.7 40.5 86 2.7 36.8
19:45 1017 30.03 846 24.98 4.7 40.5 87 2.7 36.9
19:50 1017 30.03 846 24.98 4.8 40.6 86 2.6 36.7
19:55 1017 30.03 846 24.98 4.8 40.6 85 2.5 36.5
20:00 1017 30.03 846 24.98 4.8 40.7 86 2.8 37
20:05 1017 30.03 846 24.98 4.8 40.6 87 2.8 37
20:10 1017 30.03 846 24.98 4.7 40.5 88 2.8 37.1
20:15 1017 30.03 846 24.98 4.7 40.4 88 2.8 37
20:20 1017 30.03 846 24.98 4.6 40.3 87 2.7 36.9
20:25 1017 30.03 846 24.98 4.6 40.4 87 2.7 36.9
20:30 1017 30.03 846 24.98 4.8 40.6 87 2.8 37.1
20:35 1017 30.03 846 24.98 4.8 40.6 87 2.7 36.9
20:40 1017 30.03 846 24.98 4.8 40.6 87 2.7 36.9
20:45 1017 30.03 846 24.98 4.8 40.6 85 2.5 36.5
20:50 1017 30.03 846 24.98 4.7 40.5 84 2.2 36
20:55 1017 30.03 846 24.98 4.9 40.8 82 2.1 35.8
21:00 1017 30.03 846 24.98 4.9 40.9 82 2.2 35.9
21:05 1017 30.03 846 24.98 4.9 40.9 83 2.3 36.1
21:10 1017 30.03 846 24.98 5 40.9 82 2.2 36
21:15 1017 30.03 846 24.98 5.1 41.1 80 2 35.5
21:20 1017 30.03 846 24.98 5.2 41.4 80 2 35.6
21:25 1017 30.03 846 24.98 5.2 41.4 82 2.5 36.5
21:30 1017 30.03 846 24.98 5 41 84 2.5 36.4
21:35 1017 30.03 846 24.98 4.9 40.8 85 2.5 36.6
21:40 1017 30.03 846 24.98 4.8 40.6 86 2.7 36.8
21:45 1017 30.03 846 24.98 4.7 40.5 86 2.6 36.7
21:50 1017 30.03 846 24.98 4.7 40.4 87 2.6 36.7
21:55 1017 30.03 846 24.98 4.7 40.4 87 2.6 36.7
22:00 1017 30.03 846 24.98 4.7 40.4 86 2.5 36.5
22:05 1017 30.03 846 24.98 4.8 40.7 84 2.3 36.2
22:10 1017 30.03 846 24.98 5 41.1 82 2.3 36.1
22:15 1017 30.03 846 24.98 5.2 41.4 81 2.2 36
22:20 1017 30.03 846 24.98 5.3 41.6 80 2.2 36
22:25 1017 30.03 846 24.98 5.3 41.6 82 2.4 36.4
22:30 1017 30.03 846 24.98 5.3 41.5 82 2.4 36.4
22:35 1017 30.03 846 24.98 5.3 41.5 82 2.4 36.3
22:40 1017 30.03 846 24.98 5.4 41.6 81 2.4 36.3
22:45 1017 30.03 846 24.98 5.3 41.6 83 2.7 36.9
22:50 1017 30.03 846 24.98 5.1 41.2 84 2.7 36.9
22:55 1017 30.03 846 24.98 5 40.9 85 2.7 36.8
23:00 1017 30.03 846 24.98 4.9 40.8 85 2.7 36.8
23:05 1017 30.03 846 24.98 5 41 84 2.5 36.5
23:10 1017 30.03 846 24.98 5.1 41.2 85 2.8 37.1
23:15 1017 30.03 846 24.98 5.1 41.2 86 3 37.3
23:20 1017 30.03 846 24.98 5.1 41.2 85 2.7 36.9
23:25 1017 30.03 846 24.98 5.2 41.3 83 2.5 36.4
23:30 1017 30.03 846 24.98 5.3 41.5 82 2.5 36.6
23:35 1017 30.03 846 24.98 5.3 41.5 85 3 37.3
23:40 1017 30.03 846 24.98 5.2 41.4 86 3 37.4
23:45 1017 30.03 846 24.98 5.2 41.4 84 2.7 36.9
23:50 1017 30.03 846 24.98 5.2 41.3 85 2.9 37.2
23:55 1017 30.03 846 24.98 5 41 88 3.1 37.6
24:00 1017 30.03 846 24.98 4.8 40.7 88 3.1 37.5